sensor_id;sensor_type;location;lat;lon;timestamp;pressure;altitude;pressure_sealevel;temperature;humidity
48517;BME280;34310;51.904;4.256;2024-01-27T00:00:09;103525.63;;;18.51;51.61
48517;BME280;34310;51.904;4.256;2024-01-27T00:02:36;103536.72;;;18.49;51.61
48517;BME280;34310;51.904;4.256;2024-01-27T00:05:03;103536.88;;;18.40;51.88
48517;BME280;34310;51.904;4.256;2024-01-27T00:07:30;103534.44;;;18.32;51.85
48517;BME280;34310;51.904;4.256;2024-01-27T00:09:57;103542.97;;;18.29;51.93
48517;BME280;34310;51.904;4.256;2024-01-27T00:12:24;103529.88;;;18.19;52.31
48517;BME280;34310;51.904;4.256;2024-01-27T00:14:50;103532.78;;;18.12;52.24
48517;BME280;34310;51.904;4.256;2024-01-27T00:17:17;103541.16;;;18.08;52.59
48517;BME280;34310;51.904;4.256;2024-01-27T00:19:43;103537.25;;;18.03;52.67
48517;BME280;34310;51.904;4.256;2024-01-27T00:22:10;103538.03;;;17.91;52.87
48517;BME280;34310;51.904;4.256;2024-01-27T00:24:36;103544.72;;;17.88;52.92
48517;BME280;34310;51.904;4.256;2024-01-27T00:27:03;103537.94;;;17.80;53.15
48517;BME280;34310;51.904;4.256;2024-01-27T00:29:30;103521.25;;;17.68;53.26
48517;BME280;34310;51.904;4.256;2024-01-27T00:31:56;103546.72;;;17.70;53.35
48517;BME280;34310;51.904;4.256;2024-01-27T00:34:23;103554.91;;;17.64;53.33
48517;BME280;34310;51.904;4.256;2024-01-27T00:36:49;103541.97;;;17.56;53.59
48517;BME280;34310;51.904;4.256;2024-01-27T00:39:16;103533.34;;;17.47;53.64
48517;BME280;34310;51.904;4.256;2024-01-27T00:41:43;103545.50;;;17.46;53.98
48517;BME280;34310;51.904;4.256;2024-01-27T00:44:10;103554.50;;;17.40;53.99
48517;BME280;34310;51.904;4.256;2024-01-27T00:46:37;103553.16;;;17.34;54.24
48517;BME280;34310;51.904;4.256;2024-01-27T00:49:04;103535.53;;;17.22;54.09
48517;BME280;34310;51.904;4.256;2024-01-27T00:51:30;103549.25;;;17.19;54.27
48517;BME280;34310;51.904;4.256;2024-01-27T00:53:57;103540.63;;;17.20;54.29
48517;BME280;34310;51.904;4.256;2024-01-27T00:56:24;103532.78;;;17.10;54.57
48517;BME280;34310;51.904;4.256;2024-01-27T00:58:50;103545.84;;;17.10;54.54
48517;BME280;34310;51.904;4.256;2024-01-27T01:01:17;103539.00;;;17.02;54.69
48517;BME280;34310;51.904;4.256;2024-01-27T01:03:43;103551.28;;;17.03;54.82
48517;BME280;34310;51.904;4.256;2024-01-27T01:06:10;103556.88;;;16.97;54.98
48517;BME280;34310;51.904;4.256;2024-01-27T01:08:37;103568.75;;;16.94;55.10
48517;BME280;34310;51.904;4.256;2024-01-27T01:11:03;103565.75;;;16.89;55.02
48517;BME280;34310;51.904;4.256;2024-01-27T01:13:30;103558.94;;;16.81;55.34
48517;BME280;34310;51.904;4.256;2024-01-27T01:15:56;103567.69;;;16.82;55.42
48517;BME280;34310;51.904;4.256;2024-01-27T01:18:23;103563.72;;;16.77;55.41
48517;BME280;34310;51.904;4.256;2024-01-27T01:20:49;103556.00;;;16.68;55.46
48517;BME280;34310;51.904;4.256;2024-01-27T01:23:16;103560.28;;;16.67;55.58
48517;BME280;34310;51.904;4.256;2024-01-27T01:25:42;103548.66;;;16.64;55.67
48517;BME280;34310;51.904;4.256;2024-01-27T01:28:09;103550.72;;;16.58;55.65
48517;BME280;34310;51.904;4.256;2024-01-27T01:30:36;103553.06;;;16.55;55.69
48517;BME280;34310;51.904;4.256;2024-01-27T01:33:02;103553.69;;;16.52;55.93
48517;BME280;34310;51.904;4.256;2024-01-27T01:35:29;103551.41;;;16.47;55.88
48517;BME280;34310;51.904;4.256;2024-01-27T01:37:56;103552.69;;;16.41;55.94
48517;BME280;34310;51.904;4.256;2024-01-27T01:40:22;103555.81;;;16.37;56.03
48517;BME280;34310;51.904;4.256;2024-01-27T01:42:52;103542.22;;;16.31;56.02
48517;BME280;34310;51.904;4.256;2024-01-27T01:45:18;103551.38;;;16.36;56.16
48517;BME280;34310;51.904;4.256;2024-01-27T01:47:45;103547.59;;;16.33;56.23
48517;BME280;34310;51.904;4.256;2024-01-27T01:50:12;103560.22;;;16.28;56.25
48517;BME280;34310;51.904;4.256;2024-01-27T01:52:39;103545.72;;;16.22;56.41
48517;BME280;34310;51.904;4.256;2024-01-27T01:55:06;103548.44;;;16.23;56.45
48517;BME280;34310;51.904;4.256;2024-01-27T01:57:33;103554.00;;;16.18;56.52
48517;BME280;34310;51.904;4.256;2024-01-27T01:59:59;103550.19;;;16.14;56.54
48517;BME280;34310;51.904;4.256;2024-01-27T02:02:26;103558.16;;;16.16;56.47
48517;BME280;34310;51.904;4.256;2024-01-27T02:04:53;103537.25;;;16.05;56.63
48517;BME280;34310;51.904;4.256;2024-01-27T02:07:19;103549.00;;;16.10;56.60
48517;BME280;34310;51.904;4.256;2024-01-27T02:09:46;103551.34;;;16.07;56.78
48517;BME280;34310;51.904;4.256;2024-01-27T02:12:12;103558.59;;;16.01;56.57
48517;BME280;34310;51.904;4.256;2024-01-27T02:14:39;103564.44;;;15.99;56.93
48517;BME280;34310;51.904;4.256;2024-01-27T02:17:06;103569.78;;;16.00;56.88
48517;BME280;34310;51.904;4.256;2024-01-27T02:19:32;103547.03;;;15.89;56.78
48517;BME280;34310;51.904;4.256;2024-01-27T02:21:59;103563.25;;;15.95;56.88
48517;BME280;34310;51.904;4.256;2024-01-27T02:24:25;103561.59;;;15.87;57.10
48517;BME280;34310;51.904;4.256;2024-01-27T02:26:52;103554.56;;;15.86;57.09
48517;BME280;34310;51.904;4.256;2024-01-27T02:29:18;103559.50;;;15.83;57.20
48517;BME280;34310;51.904;4.256;2024-01-27T02:31:45;103562.88;;;15.82;57.07
48517;BME280;34310;51.904;4.256;2024-01-27T02:34:12;103558.44;;;15.81;57.21
48517;BME280;34310;51.904;4.256;2024-01-27T02:36:38;103551.88;;;15.76;57.24
48517;BME280;34310;51.904;4.256;2024-01-27T02:39:05;103559.72;;;15.76;57.49
48517;BME280;34310;51.904;4.256;2024-01-27T02:41:32;103568.28;;;15.75;57.26
48517;BME280;34310;51.904;4.256;2024-01-27T02:43:58;103567.25;;;15.73;57.51
48517;BME280;34310;51.904;4.256;2024-01-27T02:46:25;103552.31;;;15.62;57.39
48517;BME280;34310;51.904;4.256;2024-01-27T02:48:51;103580.59;;;15.67;57.51
48517;BME280;34310;51.904;4.256;2024-01-27T02:51:21;103575.13;;;15.64;57.50
48517;BME280;34310;51.904;4.256;2024-01-27T02:53:48;103562.88;;;15.63;57.55
48517;BME280;34310;51.904;4.256;2024-01-27T02:56:16;103571.13;;;15.59;57.44
48517;BME280;34310;51.904;4.256;2024-01-27T02:58:43;103567.44;;;15.57;57.78
48517;BME280;34310;51.904;4.256;2024-01-27T03:01:09;103572.50;;;15.56;57.63
48517;BME280;34310;51.904;4.256;2024-01-27T03:03:36;103570.25;;;15.50;57.70
48517;BME280;34310;51.904;4.256;2024-01-27T03:06:03;103574.41;;;15.48;57.72
48517;BME280;34310;51.904;4.256;2024-01-27T03:08:29;103578.84;;;15.49;57.71
48517;BME280;34310;51.904;4.256;2024-01-27T03:10:56;103576.44;;;15.42;57.74
48517;BME280;34310;51.904;4.256;2024-01-27T03:13:22;103585.28;;;15.44;57.81
48517;BME280;34310;51.904;4.256;2024-01-27T03:15:49;103581.50;;;15.40;57.97
48517;BME280;34310;51.904;4.256;2024-01-27T03:18:15;103576.78;;;15.36;58.01
48517;BME280;34310;51.904;4.256;2024-01-27T03:20:42;103593.31;;;15.37;57.96
48517;BME280;34310;51.904;4.256;2024-01-27T03:23:08;103587.03;;;15.35;58.05
48517;BME280;34310;51.904;4.256;2024-01-27T03:25:35;103579.09;;;15.33;58.06
48517;BME280;34310;51.904;4.256;2024-01-27T03:28:01;103589.66;;;15.26;58.27
48517;BME280;34310;51.904;4.256;2024-01-27T03:30:28;103587.19;;;15.28;58.34
48517;BME280;34310;51.904;4.256;2024-01-27T03:32:55;103578.81;;;15.22;58.36
48517;BME280;34310;51.904;4.256;2024-01-27T03:35:21;103575.91;;;15.18;58.38
48517;BME280;34310;51.904;4.256;2024-01-27T03:37:48;103585.69;;;15.21;58.38
48517;BME280;34310;51.904;4.256;2024-01-27T03:40:14;103579.91;;;15.15;58.43
48517;BME280;34310;51.904;4.256;2024-01-27T03:42:41;103570.13;;;15.12;58.43
48517;BME280;34310;51.904;4.256;2024-01-27T03:45:08;103578.84;;;15.13;58.49
48517;BME280;34310;51.904;4.256;2024-01-27T03:47:34;103581.31;;;15.11;58.48
48517;BME280;34310;51.904;4.256;2024-01-27T03:50:01;103575.38;;;15.04;58.48
48517;BME280;34310;51.904;4.256;2024-01-27T03:52:27;103569.41;;;15.05;58.74
48517;BME280;34310;51.904;4.256;2024-01-27T03:54:54;103568.63;;;15.06;58.79
48517;BME280;34310;51.904;4.256;2024-01-27T03:57:20;103567.72;;;14.97;58.69
48517;BME280;34310;51.904;4.256;2024-01-27T03:59:47;103574.91;;;14.99;58.70
48517;BME280;34310;51.904;4.256;2024-01-27T04:02:13;103574.75;;;14.98;58.86
48517;BME280;34310;51.904;4.256;2024-01-27T04:04:40;103558.13;;;14.87;58.96
48517;BME280;34310;51.904;4.256;2024-01-27T04:07:07;103570.03;;;14.94;58.96
48517;BME280;34310;51.904;4.256;2024-01-27T04:09:33;103573.88;;;14.88;58.98
48517;BME280;34310;51.904;4.256;2024-01-27T04:12:00;103590.56;;;14.91;59.02
48517;BME280;34310;51.904;4.256;2024-01-27T04:14:27;103578.66;;;14.84;58.94
48517;BME280;34310;51.904;4.256;2024-01-27T04:16:53;103596.84;;;14.84;59.10
48517;BME280;34310;51.904;4.256;2024-01-27T04:19:20;103593.50;;;14.85;59.17
48517;BME280;34310;51.904;4.256;2024-01-27T04:21:46;103579.91;;;14.79;59.18
48517;BME280;34310;51.904;4.256;2024-01-27T04:24:13;103574.84;;;14.72;59.24
48517;BME280;34310;51.904;4.256;2024-01-27T04:26:39;103592.13;;;14.80;59.21
48517;BME280;34310;51.904;4.256;2024-01-27T04:29:06;103574.06;;;14.73;59.17
48517;BME280;34310;51.904;4.256;2024-01-27T04:31:32;103583.13;;;14.76;59.25
48517;BME280;34310;51.904;4.256;2024-01-27T04:33:59;103579.41;;;14.74;59.36
48517;BME280;34310;51.904;4.256;2024-01-27T04:36:27;103561.25;;;14.66;59.28
48517;BME280;34310;51.904;4.256;2024-01-27T04:38:54;103568.44;;;14.68;59.36
48517;BME280;34310;51.904;4.256;2024-01-27T04:41:20;103572.09;;;14.70;59.38
48517;BME280;34310;51.904;4.256;2024-01-27T04:43:47;103572.41;;;14.65;59.51
48517;BME280;34310;51.904;4.256;2024-01-27T04:46:13;103575.16;;;14.66;59.38
48517;BME280;34310;51.904;4.256;2024-01-27T04:48:40;103573.47;;;14.67;59.54
48517;BME280;34310;51.904;4.256;2024-01-27T04:51:07;103574.25;;;14.66;59.52
48517;BME280;34310;51.904;4.256;2024-01-27T04:53:33;103587.09;;;14.64;59.56
48517;BME280;34310;51.904;4.256;2024-01-27T04:56:00;103563.72;;;14.55;59.54
48517;BME280;34310;51.904;4.256;2024-01-27T04:58:26;103578.09;;;14.61;59.53
48517;BME280;34310;51.904;4.256;2024-01-27T05:00:53;103573.66;;;14.60;59.57
48517;BME280;34310;51.904;4.256;2024-01-27T05:03:19;103565.41;;;14.55;59.47
48517;BME280;34310;51.904;4.256;2024-01-27T05:05:46;103556.25;;;14.50;59.73
48517;BME280;34310;51.904;4.256;2024-01-27T05:08:13;103566.47;;;14.57;59.61
48517;BME280;34310;51.904;4.256;2024-01-27T05:10:39;103565.13;;;14.52;59.67
48517;BME280;34310;51.904;4.256;2024-01-27T05:13:06;103567.84;;;14.53;59.63
48517;BME280;34310;51.904;4.256;2024-01-27T05:15:32;103581.78;;;14.54;59.71
48517;BME280;34310;51.904;4.256;2024-01-27T05:17:59;103571.69;;;14.48;59.67
48517;BME280;34310;51.904;4.256;2024-01-27T05:20:26;103580.72;;;14.52;59.68
48517;BME280;34310;51.904;4.256;2024-01-27T05:22:52;103575.81;;;14.46;59.75
48517;BME280;34310;51.904;4.256;2024-01-27T05:25:19;103580.41;;;14.49;59.69
48517;BME280;34310;51.904;4.256;2024-01-27T05:27:45;103570.44;;;14.45;59.81
48517;BME280;34310;51.904;4.256;2024-01-27T05:30:12;103572.91;;;14.43;59.78
48517;BME280;34310;51.904;4.256;2024-01-27T05:32:39;103582.72;;;14.46;59.88
48517;BME280;34310;51.904;4.256;2024-01-27T05:35:06;103582.72;;;14.46;59.78
48517;BME280;34310;51.904;4.256;2024-01-27T05:37:33;103575.16;;;14.40;59.75
48517;BME280;34310;51.904;4.256;2024-01-27T05:39:59;103582.53;;;14.44;59.95
48517;BME280;34310;51.904;4.256;2024-01-27T05:42:26;103582.38;;;14.43;59.85
48517;BME280;34310;51.904;4.256;2024-01-27T05:44:53;103582.97;;;14.40;59.78
48517;BME280;34310;51.904;4.256;2024-01-27T05:47:19;103593.34;;;14.40;59.96
48517;BME280;34310;51.904;4.256;2024-01-27T05:49:46;103582.03;;;14.40;60.21
48517;BME280;34310;51.904;4.256;2024-01-27T05:52:12;103589.41;;;14.44;60.26
48517;BME280;34310;51.904;4.256;2024-01-27T05:54:51;103580.56;;;14.50;60.12
48517;BME280;34310;51.904;4.256;2024-01-27T05:57:17;103571.03;;;14.77;59.49
48517;BME280;34310;51.904;4.256;2024-01-27T05:59:44;103572.94;;;15.05;59.07
48517;BME280;34310;51.904;4.256;2024-01-27T06:02:11;103564.19;;;15.32;58.55
48517;BME280;34310;51.904;4.256;2024-01-27T06:04:37;103556.88;;;15.56;57.97
48517;BME280;34310;51.904;4.256;2024-01-27T06:07:04;103554.50;;;15.76;57.37
48517;BME280;34310;51.904;4.256;2024-01-27T06:09:30;103552.22;;;15.89;56.90
48517;BME280;34310;51.904;4.256;2024-01-27T06:12:00;103558.59;;;16.01;56.52
48517;BME280;34310;51.904;4.256;2024-01-27T06:14:27;103570.41;;;16.17;56.17
48517;BME280;34310;51.904;4.256;2024-01-27T06:16:53;103567.88;;;16.27;55.97
48517;BME280;34310;51.904;4.256;2024-01-27T06:19:20;103564.91;;;16.32;55.78
48517;BME280;34310;51.904;4.256;2024-01-27T06:21:47;103568.34;;;16.41;55.49
48517;BME280;34310;51.904;4.256;2024-01-27T06:24:13;103571.22;;;16.45;55.39
48517;BME280;34310;51.904;4.256;2024-01-27T06:26:40;103576.13;;;16.50;55.16
48517;BME280;34310;51.904;4.256;2024-01-27T06:29:06;103580.81;;;16.54;54.89
48517;BME280;34310;51.904;4.256;2024-01-27T06:31:33;103584.75;;;16.59;54.90
48517;BME280;34310;51.904;4.256;2024-01-27T06:34:00;103585.81;;;16.61;54.79
48517;BME280;34310;51.904;4.256;2024-01-27T06:36:26;103576.66;;;16.56;54.64
48517;BME280;34310;51.904;4.256;2024-01-27T06:38:53;103581.63;;;16.63;54.62
48517;BME280;34310;51.904;4.256;2024-01-27T06:41:20;103592.22;;;16.65;54.74
48517;BME280;34310;51.904;4.256;2024-01-27T06:43:46;103591.03;;;16.61;54.40
48517;BME280;34310;51.904;4.256;2024-01-27T06:46:13;103588.56;;;16.63;54.38
48517;BME280;34310;51.904;4.256;2024-01-27T06:48:39;103598.06;;;16.62;54.50
48517;BME280;34310;51.904;4.256;2024-01-27T06:51:06;103603.28;;;16.62;54.38
48517;BME280;34310;51.904;4.256;2024-01-27T06:53:32;103584.84;;;16.51;54.48
48517;BME280;34310;51.904;4.256;2024-01-27T06:55:59;103610.56;;;16.56;54.51
48517;BME280;34310;51.904;4.256;2024-01-27T06:58:25;103607.69;;;16.53;54.84
48517;BME280;34310;51.904;4.256;2024-01-27T07:00:52;103596.66;;;16.47;54.60
48517;BME280;34310;51.904;4.256;2024-01-27T07:03:19;103583.22;;;16.42;54.77
48517;BME280;34310;51.904;4.256;2024-01-27T07:05:45;103586.75;;;16.43;54.82
48517;BME280;34310;51.904;4.256;2024-01-27T07:08:12;103593.22;;;16.38;54.95
48517;BME280;34310;51.904;4.256;2024-01-27T07:10:38;103591.91;;;16.33;54.91
48517;BME280;34310;51.904;4.256;2024-01-27T07:13:05;103587.19;;;16.29;55.03
48517;BME280;34310;51.904;4.256;2024-01-27T07:15:32;103580.50;;;16.22;55.16
48517;BME280;34310;51.904;4.256;2024-01-27T07:17:58;103590.94;;;16.22;55.29
48517;BME280;34310;51.904;4.256;2024-01-27T07:20:25;103591.56;;;16.20;55.39
48517;BME280;34310;51.904;4.256;2024-01-27T07:22:51;103581.34;;;16.13;55.40
48517;BME280;34310;51.904;4.256;2024-01-27T07:25:18;103584.56;;;16.10;55.50
48517;BME280;34310;51.904;4.256;2024-01-27T07:27:44;103595.63;;;16.07;55.55
48517;BME280;34310;51.904;4.256;2024-01-27T07:30:11;103583.59;;;15.99;55.70
48517;BME280;34310;51.904;4.256;2024-01-27T07:32:38;103588.81;;;15.99;55.93
48517;BME280;34310;51.904;4.256;2024-01-27T07:35:05;103568.19;;;15.92;55.78
48517;BME280;34310;51.904;4.256;2024-01-27T07:37:31;103562.38;;;15.86;55.98
48517;BME280;34310;51.904;4.256;2024-01-27T07:39:58;103579.69;;;15.86;56.04
48517;BME280;34310;51.904;4.256;2024-01-27T07:42:24;103581.09;;;15.82;56.39
48517;BME280;34310;51.904;4.256;2024-01-27T07:44:51;103579.00;;;15.78;56.40
48517;BME280;34310;51.904;4.256;2024-01-27T07:47:18;103587.31;;;15.74;56.39
48517;BME280;34310;51.904;4.256;2024-01-27T07:49:44;103593.16;;;15.71;56.50
48517;BME280;34310;51.904;4.256;2024-01-27T07:52:11;103589.19;;;15.66;56.69
48517;BME280;34310;51.904;4.256;2024-01-27T07:54:37;103579.53;;;15.57;56.74
48517;BME280;34310;51.904;4.256;2024-01-27T07:57:05;103583.38;;;15.60;56.67
48517;BME280;34310;51.904;4.256;2024-01-27T07:59:31;103574.53;;;15.49;56.80
48517;BME280;34310;51.904;4.256;2024-01-27T08:01:59;103577.13;;;15.49;56.84
48517;BME280;34310;51.904;4.256;2024-01-27T08:04:26;103586.34;;;15.46;57.22
48517;BME280;34310;51.904;4.256;2024-01-27T08:06:52;103598.31;;;15.44;57.00
48517;BME280;34310;51.904;4.256;2024-01-27T08:09:19;103594.66;;;15.42;56.97
48517;BME280;34310;51.904;4.256;2024-01-27T08:11:46;103608.16;;;15.38;57.24
48517;BME280;34310;51.904;4.256;2024-01-27T08:14:12;103608.44;;;15.32;57.22
48517;BME280;34310;51.904;4.256;2024-01-27T08:16:39;103613.50;;;15.31;57.39
48517;BME280;34310;51.904;4.256;2024-01-27T08:19:06;103611.41;;;15.27;57.47
48517;BME280;34310;51.904;4.256;2024-01-27T08:21:32;103623.50;;;15.26;57.43
48517;BME280;34310;51.904;4.256;2024-01-27T08:23:59;103624.25;;;15.25;57.48
48517;BME280;34310;51.904;4.256;2024-01-27T08:26:26;103626.28;;;15.19;57.56
48517;BME280;34310;51.904;4.256;2024-01-27T08:28:52;103617.13;;;15.14;57.62
48517;BME280;34310;51.904;4.256;2024-01-27T08:31:19;103625.69;;;15.13;57.66
48517;BME280;34310;51.904;4.256;2024-01-27T08:33:45;103631.06;;;15.14;57.65
48517;BME280;34310;51.904;4.256;2024-01-27T08:36:15;103632.72;;;15.14;57.70
48517;BME280;34310;51.904;4.256;2024-01-27T08:38:42;103635.19;;;15.12;57.65
48517;BME280;34310;51.904;4.256;2024-01-27T08:41:08;103639.47;;;15.12;57.81
48517;BME280;34310;51.904;4.256;2024-01-27T08:43:35;103630.31;;;15.07;57.83
48517;BME280;34310;51.904;4.256;2024-01-27T08:46:01;103622.22;;;15.04;57.84
48517;BME280;34310;51.904;4.256;2024-01-27T08:48:28;103630.94;;;15.04;57.83
48517;BME280;34310;51.904;4.256;2024-01-27T08:50:54;103629.25;;;15.05;57.80
48517;BME280;34310;51.904;4.256;2024-01-27T08:53:21;103615.78;;;15.00;57.89
48517;BME280;34310;51.904;4.256;2024-01-27T08:55:48;103614.84;;;15.00;57.95
48517;BME280;34310;51.904;4.256;2024-01-27T08:58:14;103620.06;;;15.00;57.97
48517;BME280;34310;51.904;4.256;2024-01-27T09:00:41;103613.34;;;14.93;57.93
48517;BME280;34310;51.904;4.256;2024-01-27T09:03:07;103631.09;;;14.97;58.06
48517;BME280;34310;51.904;4.256;2024-01-27T09:05:34;103636.88;;;15.03;58.46
48517;BME280;34310;51.904;4.256;2024-01-27T09:08:01;103638.38;;;15.18;58.66
48517;BME280;34310;51.904;4.256;2024-01-27T09:10:27;103635.47;;;15.52;58.07
48517;BME280;34310;51.904;4.256;2024-01-27T09:12:53;103634.38;;;15.94;57.11
48517;BME280;34310;51.904;4.256;2024-01-27T09:15:20;103638.06;;;16.34;56.13
48517;BME280;34310;51.904;4.256;2024-01-27T09:17:47;103642.50;;;16.72;55.25
48517;BME280;34310;51.904;4.256;2024-01-27T09:20:15;103642.78;;;17.04;54.79
48517;BME280;34310;51.904;4.256;2024-01-27T09:22:42;103640.00;;;17.32;54.24
48517;BME280;34310;51.904;4.256;2024-01-27T09:25:09;103646.59;;;17.57;53.26
48517;BME280;34310;51.904;4.256;2024-01-27T09:27:35;103638.16;;;17.80;52.69
48517;BME280;34310;51.904;4.256;2024-01-27T09:30:02;103636.88;;;18.06;51.75
48517;BME280;34310;51.904;4.256;2024-01-27T09:32:29;103638.13;;;18.21;51.27
48517;BME280;34310;51.904;4.256;2024-01-27T09:34:56;103622.88;;;18.25;51.00
48517;BME280;34310;51.904;4.256;2024-01-27T09:37:22;103637.22;;;18.41;50.87
48517;BME280;34310;51.904;4.256;2024-01-27T09:39:54;103640.75;;;18.51;50.70
48517;BME280;34310;51.904;4.256;2024-01-27T09:42:21;103626.56;;;18.60;50.33
48517;BME280;34310;51.904;4.256;2024-01-27T09:44:48;103648.00;;;18.76;50.24
48517;BME280;34310;51.904;4.256;2024-01-27T09:47:15;103652.94;;;18.93;49.59
48517;BME280;34310;51.904;4.256;2024-01-27T09:49:42;103650.63;;;19.08;49.24
48517;BME280;34310;51.904;4.256;2024-01-27T09:52:10;103651.75;;;19.22;49.11
48517;BME280;34310;51.904;4.256;2024-01-27T09:54:37;103652.78;;;19.24;49.02
48517;BME280;34310;51.904;4.256;2024-01-27T09:57:08;103651.69;;;19.32;49.00
48517;BME280;34310;51.904;4.256;2024-01-27T09:59:36;103654.94;;;19.39;48.51
48517;BME280;34310;51.904;4.256;2024-01-27T10:02:04;103664.63;;;19.40;48.75
48517;BME280;34310;51.904;4.256;2024-01-27T10:04:32;103677.59;;;19.39;48.83
48517;BME280;34310;51.904;4.256;2024-01-27T10:06:59;103682.84;;;19.39;48.87
48517;BME280;34310;51.904;4.256;2024-01-27T10:09:26;103674.59;;;19.34;48.64
48517;BME280;34310;51.904;4.256;2024-01-27T10:11:53;103666.34;;;19.40;48.35
48517;BME280;34310;51.904;4.256;2024-01-27T10:14:21;103670.78;;;19.41;48.42
48517;BME280;34310;51.904;4.256;2024-01-27T10:16:48;103668.28;;;19.42;48.58
48517;BME280;34310;51.904;4.256;2024-01-27T10:19:16;103670.34;;;19.46;48.53
48517;BME280;34310;51.904;4.256;2024-01-27T10:21:44;103664.41;;;19.59;48.36
48517;BME280;34310;51.904;4.256;2024-01-27T10:24:11;103660.53;;;19.66;48.15
48517;BME280;34310;51.904;4.256;2024-01-27T10:26:38;103665.84;;;19.77;47.80
48517;BME280;34310;51.904;4.256;2024-01-27T10:29:04;103662.00;;;19.84;47.45
48517;BME280;34310;51.904;4.256;2024-01-27T10:31:33;103660.16;;;19.83;47.71
48517;BME280;34310;51.904;4.256;2024-01-27T10:34:00;103661.09;;;19.84;47.48
48517;BME280;34310;51.904;4.256;2024-01-27T10:36:41;103656.63;;;19.83;47.69
48517;BME280;34310;51.904;4.256;2024-01-27T10:39:21;103666.56;;;19.87;47.87
48517;BME280;34310;51.904;4.256;2024-01-27T10:41:49;103673.16;;;19.82;47.09
48517;BME280;34310;51.904;4.256;2024-01-27T10:44:19;103678.13;;;19.67;47.80
48517;BME280;34310;51.904;4.256;2024-01-27T10:46:48;103685.38;;;19.59;48.08
48517;BME280;34310;51.904;4.256;2024-01-27T10:49:16;103683.94;;;19.53;48.24
48517;BME280;34310;51.904;4.256;2024-01-27T10:51:46;103680.59;;;19.43;48.70
48517;BME280;34310;51.904;4.256;2024-01-27T10:54:14;103680.72;;;19.45;48.57
48517;BME280;34310;51.904;4.256;2024-01-27T10:56:45;103677.72;;;19.40;48.76
48517;BME280;34310;51.904;4.256;2024-01-27T10:59:13;103668.69;;;19.37;48.82
48517;BME280;34310;51.904;4.256;2024-01-27T11:01:41;103671.72;;;19.31;48.69
48517;BME280;34310;51.904;4.256;2024-01-27T11:04:09;103677.88;;;19.32;49.07
48517;BME280;34310;51.904;4.256;2024-01-27T11:06:37;103668.63;;;19.25;49.04
48517;BME280;34310;51.904;4.256;2024-01-27T11:09:05;103671.25;;;19.25;49.19
48517;BME280;34310;51.904;4.256;2024-01-27T11:11:32;103669.41;;;19.24;48.16
48517;BME280;34310;51.904;4.256;2024-01-27T11:13:58;103666.44;;;19.19;49.06
48517;BME280;34310;51.904;4.256;2024-01-27T11:16:25;103664.38;;;19.15;48.85
48517;BME280;34310;51.904;4.256;2024-01-27T11:18:52;103677.69;;;19.18;49.06
48517;BME280;34310;51.904;4.256;2024-01-27T11:21:18;103673.94;;;19.15;48.90
48517;BME280;34310;51.904;4.256;2024-01-27T11:23:45;103662.28;;;19.11;49.20
48517;BME280;34310;51.904;4.256;2024-01-27T11:26:17;103665.41;;;19.07;49.03
48517;BME280;34310;51.904;4.256;2024-01-27T11:28:45;103657.31;;;19.04;49.04
48517;BME280;34310;51.904;4.256;2024-01-27T11:31:12;103665.84;;;19.02;49.43
48517;BME280;34310;51.904;4.256;2024-01-27T11:33:47;103657.75;;;18.99;49.32
48517;BME280;34310;51.904;4.256;2024-01-27T11:36:22;103639.16;;;18.96;48.64
48517;BME280;34310;51.904;4.256;2024-01-27T11:38:50;103655.84;;;19.08;49.01
48517;BME280;34310;51.904;4.256;2024-01-27T11:41:30;103658.00;;;19.02;49.17
48517;BME280;34310;51.904;4.256;2024-01-27T11:43:57;103634.59;;;18.93;49.22
48517;BME280;34310;51.904;4.256;2024-01-27T11:46:25;103648.72;;;18.95;48.68
48517;BME280;34310;51.904;4.256;2024-01-27T11:48:51;103649.75;;;18.97;49.40
48517;BME280;34310;51.904;4.256;2024-01-27T11:51:18;103648.22;;;18.89;49.35
48517;BME280;34310;51.904;4.256;2024-01-27T11:53:45;103653.72;;;18.92;49.66
48517;BME280;34310;51.904;4.256;2024-01-27T11:56:13;103642.88;;;18.87;49.47
48517;BME280;34310;51.904;4.256;2024-01-27T11:58:46;103643.16;;;18.80;49.83
48517;BME280;34310;51.904;4.256;2024-01-27T12:01:12;103631.91;;;18.81;49.81
48517;BME280;34310;51.904;4.256;2024-01-27T12:03:39;103630.88;;;18.79;49.95
48517;BME280;34310;51.904;4.256;2024-01-27T12:06:10;103631.78;;;18.80;49.96
48517;BME280;34310;51.904;4.256;2024-01-27T12:08:41;103623.28;;;18.72;49.93
48517;BME280;34310;51.904;4.256;2024-01-27T12:11:07;103630.47;;;18.75;49.97
48517;BME280;34310;51.904;4.256;2024-01-27T12:13:34;103617.94;;;18.71;50.24
48517;BME280;34310;51.904;4.256;2024-01-27T12:16:01;103624.75;;;18.69;50.54
48517;BME280;34310;51.904;4.256;2024-01-27T12:18:27;103613.22;;;18.67;50.70
48517;BME280;34310;51.904;4.256;2024-01-27T12:20:57;103614.81;;;18.65;50.85
48517;BME280;34310;51.904;4.256;2024-01-27T12:23:24;103599.78;;;18.62;50.69
48517;BME280;34310;51.904;4.256;2024-01-27T12:25:54;103601.84;;;18.66;50.60
48517;BME280;34310;51.904;4.256;2024-01-27T12:28:24;103597.41;;;18.65;50.84
48517;BME280;34310;51.904;4.256;2024-01-27T12:30:52;103600.16;;;18.67;50.49
48517;BME280;34310;51.904;4.256;2024-01-27T12:33:19;103596.63;;;18.66;50.74
48517;BME280;34310;51.904;4.256;2024-01-27T12:35:46;103597.41;;;18.65;50.68
48517;BME280;34310;51.904;4.256;2024-01-27T12:38:13;103605.38;;;18.67;50.75
48517;BME280;34310;51.904;4.256;2024-01-27T12:40:39;103611.53;;;18.67;50.84
48517;BME280;34310;51.904;4.256;2024-01-27T12:43:06;103618.47;;;18.67;51.05
48517;BME280;34310;51.904;4.256;2024-01-27T12:45:33;103610.50;;;18.65;50.87
48517;BME280;34310;51.904;4.256;2024-01-27T12:47:59;103619.38;;;18.67;50.87